Riverton, Mississippi
Current Conditions -  °F | °C
As of 4:15 PM on Monday 20 Oct 2014 (Local Time) from KCKM Reporting Station
Clear Clear  
Wind Chill: 73°   Ceiling: Unl
Heat Index: 73°   Visibility: 10mi
Dew Point: 50°   Wind: 5mph
Humidity: 44%   Direction: 290°WNW
Pressure: 30.03"   Gusts: NA
Location:  34.1809°N, 90.6118°W
Report Text: KCKM 202115Z AUTO 29004KT 10SM CLR 23/10 A3003 RMK AO1
Loading
Personal Weather Stations






























Interactive Weather Map
Tropical Storm Tracking
New forecast layout! Learn more

10-Day Weather Forecast

Advertisements
Track Severe Weather on mobile